PAUNPASC

Guest
Details From PAUN - Unalakleet
To PASC - Deadhorse
Flight Number -
Tags Generated
Created
Modified
Stats Distance 474 nm / 879 km
Max Altitude 0 ft / 0 m
Waypoints 4
Social Downloads 3
Likes 0
Share VATSIM

Download

Looking for another format? Having issues loading an existing format? Contact us
Advertisement - Login to hide

Notes

Generated

Route

PAUN VIGUC R0595 PASC

ID Type Via Altitude Latitude Longitude Leg Dist Tot Dist Heading (true) Name
O PAUN APT - 0 ft / 0 m 63.88345˚ -160.79903˚ - 0 nm - -
VIGUC FIX - 0 ft / 0 m 66.80578˚ -156.26358˚ 208 nm 208 nm 31° / 35° -
R0595 FIX - 0 ft / 0 m 70.19246˚ -148.49046˚ 265 nm 474 nm 37° / 44° -
O PASC APT - 0 ft / 0 m 70.19246˚ -148.49046˚ 0 nm 474 nm 0° / 180° -

Altitude Profile

Advertisement - Login to hide

Weather


0- 5 10 15 20 25 30 35+ Temperature / ° C

Clouds and Precipitation
Forecast for 2017-12-13 06:00 UTC. Updated 5 minutes ago

Ground ~20,000 ft ~40,000 ft Winds

PAUN

Details ICAO PAUN (UNK)
Name Unalakleet
Region USA (Alaska)
Timezone America/Anchorage (UTC-9.0)
Stats Elevation 68 ft / 21 m (AMSL)
Location 63.886590° -160.796931°
Runways 2
Magnetic Variation 12.178° E

METAR

PAUN 130456Z AUTO 09026KT 10SM CLR 02/M01 A2949 RMK AO2 PK WND 09032/0439 SLP989 T00221011 FZRANO

Decode

TAF

PAUN 122322Z 1300/1324 08015KT P6SM SCT035 BKN050 OVC100 FM130600 09018G24KT 6SM -FZRASN BR BKN035 BKN050 OVC100 FM131500 09018KT 6SM -FZRASN BKN015 OVC025

Decode

Departure Runways

ID Width Length Bearing (true) Bearing (mag) Surface Threshold Offset Overrun Length
15 151 ft / 46 m 5,990 ft / 1,826 m 164.15° 151.97° Asphalt 0 ft / 0 m 499 ft / 152 m
26 79 ft / 24 m 1,993 ft / 608 m 278.43° 266.25° Asphalt 0 ft / 0 m 0 ft / 0 m
33 151 ft / 46 m 5,990 ft / 1,826 m 344.16° 331.98° Asphalt 0 ft / 0 m 0 ft / 0 m
8 79 ft / 24 m 1,993 ft / 608 m 98.42° 86.24° Asphalt 0 ft / 0 m 0 ft / 0 m

PASC

Details ICAO PASC (SCC)
Name DEADHORSE
Region USA (Alaska)
Timezone America/Anchorage (UTC-9.0)
Stats Elevation 64 ft / 20 m (AMSL)
Location 70.194754° -148.465162°
Runways 1
Magnetic Variation 17.996° E

METAR

PASC 130453Z 06022KT 1SM R06/4500V6000FT -SN BLSN BR OVC006 M12/M13 A2999

Decode

TAF

TAF TAF AMD PASC 130340Z 1304/1324 05022G28KT 1SM -SN BR BKN007 OVC015 FM130600 06022G28KT 1 1/2SM -SN BLSN BKN007 OVC015 FM131500 06020KT 2SM -SN BLSN BKN007 OVC015

Decode

Destination Runways

ID Width Length Bearing (true) Bearing (mag) Surface Threshold Offset Overrun Length
04 151 ft / 46 m 6,506 ft / 1,983 m 74.98° 56.98° Asphalt 0 ft / 0 m 0 ft / 0 m
22 151 ft / 46 m 6,506 ft / 1,983 m 255.03° 237.03° Asphalt 0 ft / 0 m 0 ft / 0 m

Approach Navaids

Runway Type Ident Frequency Range Bearing (true) Bearing (mag) Slope Elevation
04 Localiser ISCC 109.30 MHz 18 nm / 33 km 75.03° 57.04° - 64 ft / 20 m (AMSL)
04 Glidescope ISCC 109.30 MHz 10 nm / 19 km 75.00° 57.01° 3.00° 52 ft / 16 m (AMSL)